createdAt,value
2023-08-17T00:03:31.893Z,99.90
2023-08-17T00:10:14.577Z,99.90
2023-08-17T00:16:58.421Z,99.90
2023-08-17T00:23:40.981Z,99.90
2023-08-17T00:30:23.574Z,99.90
2023-08-17T00:37:06.162Z,99.90
2023-08-17T00:43:48.729Z,99.90
2023-08-17T00:50:31.955Z,99.90
2023-08-17T00:57:15.404Z,99.90
2023-08-17T01:03:58.572Z,99.90
2023-08-17T01:11:12.037Z,99.90
2023-08-17T01:18:29.618Z,99.90
2023-08-17T01:25:13.380Z,99.90
2023-08-17T01:32:11.166Z,99.90
2023-08-17T01:38:56.721Z,99.90
2023-08-17T01:45:39.908Z,99.90
2023-08-17T01:52:22.439Z,99.90
2023-08-17T01:59:05.185Z,99.90
2023-08-17T02:05:48.053Z,99.90
2023-08-17T02:12:32.603Z,99.90
2023-08-17T02:19:15.265Z,99.90
2023-08-17T02:25:58.242Z,99.90
2023-08-17T02:32:40.814Z,99.90
2023-08-17T02:39:23.466Z,99.90
2023-08-17T02:46:08.324Z,99.90
2023-08-17T02:52:51.303Z,99.90
2023-08-17T02:59:34.012Z,99.90
2023-08-17T03:06:16.634Z,99.90
2023-08-17T03:12:59.189Z,99.90
2023-08-17T03:19:41.924Z,99.90
2023-08-17T03:26:24.560Z,99.90
2023-08-17T03:33:07.320Z,99.90
2023-08-17T03:39:50.045Z,99.90
2023-08-17T03:46:32.961Z,99.90
2023-08-17T03:53:15.530Z,99.90
2023-08-17T03:59:58.666Z,99.90
2023-08-17T04:06:42.082Z,99.90
2023-08-17T04:13:24.730Z,99.90
2023-08-17T04:20:07.878Z,99.90
2023-08-17T04:26:50.560Z,99.90
2023-08-17T04:33:33.219Z,99.90
2023-08-17T04:40:16.545Z,99.90
2023-08-17T04:46:59.466Z,99.90
2023-08-17T04:53:42.335Z,99.90
2023-08-17T05:00:32.093Z,99.90
2023-08-17T05:07:15.514Z,99.90
2023-08-17T05:13:58.319Z,99.90
2023-08-17T05:20:41.244Z,99.90
2023-08-17T05:27:24.726Z,99.90
2023-08-17T05:34:07.649Z,99.90
2023-08-17T05:40:58.941Z,99.90
2023-08-17T05:47:41.768Z,99.90
2023-08-17T05:54:24.474Z,99.90
2023-08-17T06:01:11.161Z,99.90
2023-08-17T06:07:53.841Z,99.90
2023-08-17T06:14:37.105Z,99.90
2023-08-17T06:21:21.195Z,99.90
2023-08-17T06:28:03.969Z,99.90
2023-08-17T06:34:46.656Z,99.90
2023-08-17T06:41:29.423Z,99.90
2023-08-17T06:48:12.081Z,99.90
2023-08-17T06:54:54.829Z,99.90
2023-08-17T07:01:37.496Z,99.90
2023-08-17T07:08:20.088Z,99.90
2023-08-17T07:15:02.666Z,99.90
2023-08-17T07:21:46.190Z,99.90
2023-08-17T07:28:28.893Z,99.90
2023-08-17T07:35:11.522Z,99.90
2023-08-17T07:41:55.003Z,99.90
2023-08-17T07:48:37.668Z,99.90
2023-08-17T07:55:20.614Z,99.90
2023-08-17T08:02:03.235Z,99.90
2023-08-17T08:08:45.845Z,98.10
2023-08-17T08:15:28.466Z,95.30
2023-08-17T08:22:11.022Z,92.50
2023-08-17T08:28:53.852Z,91.50
2023-08-17T08:35:36.461Z,90.20
2023-08-17T08:42:20.231Z,89.10
2023-08-17T08:49:06.336Z,86.30
2023-08-17T08:56:01.788Z,85.60
2023-08-17T09:02:45.179Z,85.50
2023-08-17T09:09:31.434Z,85.60
2023-08-17T09:16:14.098Z,85.00
2023-08-17T09:22:59.511Z,84.40
2023-08-17T09:29:47.034Z,83.60
2023-08-17T09:36:29.624Z,84.20
2023-08-17T09:43:12.470Z,83.30
2023-08-17T09:49:55.902Z,83.40
2023-08-17T09:56:38.656Z,83.70
2023-08-17T10:03:26.528Z,85.10
2023-08-17T10:10:11.729Z,84.80
2023-08-17T10:17:01.037Z,86.60
2023-08-17T10:23:45.803Z,86.60
2023-08-17T10:30:28.900Z,85.30
2023-08-17T10:37:12.767Z,85.00
2023-08-17T10:43:59.362Z,85.00
2023-08-17T10:50:43.753Z,84.00
2023-08-17T10:57:33.369Z,84.40
2023-08-17T11:04:18.534Z,86.60
2023-08-17T11:11:11.313Z,89.50
2023-08-17T11:17:54.535Z,92.10
2023-08-17T11:24:41.546Z,91.90
2023-08-17T11:31:27.283Z,93.60
2023-08-17T11:38:10.099Z,94.40
2023-08-17T11:44:52.847Z,93.80
2023-08-17T11:51:36.315Z,97.00
2023-08-17T11:58:18.891Z,95.90
2023-08-17T12:05:07.439Z,94.60
2023-08-17T12:11:54.844Z,94.80
2023-08-17T12:18:37.411Z,95.10
2023-08-17T12:25:24.119Z,98.40
2023-08-17T12:32:08.659Z,98.10
2023-08-17T12:38:51.324Z,99.90
2023-08-17T12:45:33.878Z,99.90
2023-08-17T12:52:16.476Z,99.90
2023-08-17T12:59:02.998Z,99.90
2023-08-17T13:05:46.187Z,99.90
2023-08-17T13:12:28.912Z,99.90
2023-08-17T13:19:13.840Z,99.90
2023-08-17T13:25:59.256Z,99.90
2023-08-17T13:32:44.124Z,99.90
2023-08-17T13:39:28.413Z,99.90
2023-08-17T13:46:11.259Z,99.90
2023-08-17T13:52:56.737Z,99.90
2023-08-17T13:59:39.495Z,99.90
2023-08-17T14:06:22.388Z,99.90
2023-08-17T14:13:05.730Z,99.90
2023-08-17T14:19:50.604Z,99.90
2023-08-17T14:26:33.371Z,99.90
2023-08-17T14:33:16.642Z,99.90
2023-08-17T14:40:01.617Z,99.90
2023-08-17T14:46:50.369Z,99.90
2023-08-17T14:53:39.323Z,99.90
2023-08-17T15:00:27.048Z,99.90
2023-08-17T15:07:12.618Z,99.90
2023-08-17T15:13:55.264Z,99.90
2023-08-17T15:20:43.160Z,99.90
2023-08-17T15:27:26.641Z,99.90
2023-08-17T15:34:09.856Z,99.90
2023-08-17T15:40:55.474Z,99.90
2023-08-17T15:47:38.411Z,99.90
2023-08-17T15:54:33.476Z,99.90
2023-08-17T16:01:18.149Z,99.90
2023-08-17T16:08:01.169Z,99.90
2023-08-17T16:14:49.504Z,99.90
2023-08-17T16:21:32.616Z,99.90
2023-08-17T16:28:15.266Z,99.90
2023-08-17T16:34:58.938Z,99.90
2023-08-17T16:41:41.512Z,99.90
2023-08-17T16:48:25.375Z,99.90
2023-08-17T16:55:08.359Z,99.90
2023-08-17T17:01:51.268Z,99.90
2023-08-17T17:08:33.982Z,99.90
2023-08-17T17:15:16.571Z,99.90
2023-08-17T17:21:59.198Z,99.90
2023-08-17T17:28:41.788Z,99.90
2023-08-17T17:35:24.692Z,99.90
2023-08-17T17:42:07.459Z,99.90
2023-08-17T17:48:50.085Z,99.90
2023-08-17T17:55:33.586Z,99.90
2023-08-17T18:02:16.187Z,99.90
2023-08-17T18:08:58.992Z,99.90
2023-08-17T18:15:43.078Z,99.90
2023-08-17T18:22:25.908Z,99.90
2023-08-17T18:29:08.865Z,99.90
2023-08-17T18:35:52.060Z,99.90
2023-08-17T18:42:34.586Z,99.90
2023-08-17T18:49:17.118Z,99.90
2023-08-17T18:55:59.745Z,99.90
2023-08-17T19:02:43.315Z,99.90
2023-08-17T19:09:27.072Z,99.90
2023-08-17T19:16:09.953Z,99.90
2023-08-17T19:22:56.261Z,99.90
2023-08-17T19:29:42.303Z,99.90
2023-08-17T19:36:25.323Z,99.90
2023-08-17T19:43:07.969Z,99.90
2023-08-17T19:49:50.598Z,99.90
2023-08-17T19:56:33.301Z,99.90
2023-08-17T20:03:16.092Z,99.90
2023-08-17T20:10:00.747Z,99.90
2023-08-17T20:16:43.440Z,99.90
2023-08-17T20:23:26.834Z,99.90
2023-08-17T20:30:10.152Z,99.90
2023-08-17T20:36:53.364Z,99.90
2023-08-17T20:43:36.189Z,99.90
2023-08-17T20:50:20.011Z,99.90
2023-08-17T20:57:03.777Z,99.90
2023-08-17T21:03:49.380Z,99.90
2023-08-17T21:10:32.343Z,99.90
2023-08-17T21:17:16.058Z,99.90
2023-08-17T21:23:59.333Z,99.90
2023-08-17T21:30:42.098Z,99.90
2023-08-17T21:37:27.593Z,99.90
2023-08-17T21:44:10.655Z,99.90
2023-08-17T21:50:53.726Z,99.90
2023-08-17T21:57:36.426Z,99.90
2023-08-17T22:04:19.067Z,99.90
2023-08-17T22:11:02.194Z,99.90
2023-08-17T22:17:44.948Z,99.90
2023-08-17T22:24:32.306Z,99.90
2023-08-17T22:31:21.102Z,99.90
2023-08-17T22:38:04.423Z,99.90
2023-08-17T22:44:47.027Z,99.90
2023-08-17T22:51:29.972Z,99.90
2023-08-17T22:58:13.190Z,99.90
2023-08-17T23:04:56.448Z,99.90
2023-08-17T23:11:39.392Z,99.90
2023-08-17T23:18:22.983Z,99.90
2023-08-17T23:25:06.152Z,99.90
2023-08-17T23:31:49.376Z,99.90
2023-08-17T23:38:32.081Z,99.90
2023-08-17T23:45:14.677Z,99.90
2023-08-17T23:51:57.283Z,99.90
2023-08-17T23:58:39.884Z,99.90
